»·PEaware :: N9881E KSNA-KSNA

N9881E :: KSNA-KSNA

FLIGHT INFORMATION

Flight Status: Arrived
Operator: Privately registered:
United States
More flights under this callsign
Pilot: Ben B. (22424)
Aircraft: CESSNA 172 SKYHAWK
(C172)
More flights by this aircraft type
Origin: KSNA John Wayne-Orange Co
United States
Destination: KSNA John Wayne-Orange Co
United States
More flights between these airports :: More routes between these airports
Route: SLI
File this flight plan on PilotEdge
Remarks: I-1 Rating
Altitude:
(Current/Filed)
3,000ft
Speed:
(Current/Filed)
115kts
Departed: 04-Nov-19 01:50 PM
Arrived: 04-Nov-19 02:12 PM
Distance/Time
Traveled:
0nm/0:22
Distance/Time
To Go:
Arrived

Flight Plot

Page will automatically refresh every two minutes.


Map Options




Map Legend


Flown Route
Filed Route
Departure Airport
Arrival Airport
Navaid (VOR, NDB)
Fix

Horizontal Profiles

Position Reports

Time Latitude Longitude Heading Altitude Ground
Speed
04-Nov-19 13:20 33.675760 -117.871269 40 60ft 0kts
04-Nov-19 13:21 33.675760 -117.871269 40 60ft 0kts
04-Nov-19 13:22 33.675760 -117.871269 40 60ft 0kts
04-Nov-19 13:23 33.675760 -117.871269 40 60ft 0kts
04-Nov-19 13:24 33.675760 -117.871269 40 60ft 0kts
04-Nov-19 13:25 33.675760 -117.871269 40 60ft 0kts
04-Nov-19 13:26 33.675760 -117.871269 40 60ft 0kts
04-Nov-19 13:27 33.675760 -117.871269 40 60ft 0kts
04-Nov-19 13:28 33.675760 -117.871269 40 60ft 0kts
04-Nov-19 13:29 33.675760 -117.871269 40 60ft 0kts
04-Nov-19 13:30 33.675760 -117.871269 40 60ft 0kts
04-Nov-19 13:31 33.675760 -117.871269 40 60ft 0kts
04-Nov-19 13:32 33.675760 -117.871269 40 60ft 0kts
04-Nov-19 13:33 33.675760 -117.871269 40 60ft 0kts
04-Nov-19 13:34 33.675760 -117.871269 40 60ft 0kts
04-Nov-19 13:35 33.675760 -117.871269 40 60ft 0kts
04-Nov-19 13:36 33.676412 -117.871001 45 60ft 0kts
04-Nov-19 13:37 33.676412 -117.871001 45 60ft 0kts
04-Nov-19 13:38 33.676412 -117.871001 45 60ft 0kts
04-Nov-19 13:39 33.676412 -117.871001 45 60ft 0kts
04-Nov-19 13:40 33.676412 -117.871001 45 60ft 0kts
04-Nov-19 13:41 33.676407 -117.871006 44 60ft 0kts
04-Nov-19 13:42 33.676171 -117.870231 90 60ft 0kts
04-Nov-19 13:43 33.677748 -117.869175 24 60ft 12kts
04-Nov-19 13:44 33.680951 -117.867233 26 60ft 7kts
04-Nov-19 13:45 33.681265 -117.866558 104 60ft 0kts
04-Nov-19 13:46 33.681265 -117.866558 104 60ft 0kts
04-Nov-19 13:47 33.681265 -117.866558 104 60ft 0kts
04-Nov-19 13:48 33.680889 -117.865596 178 60ft 14kts
04-Nov-19 13:49 33.667561 -117.871278 178 434ft 77kts
04-Nov-19 13:50 33.652327 -117.885881 238 1218ft 74kts
04-Nov-19 13:51 33.641344 -117.908183 231 2011ft 84kts
04-Nov-19 13:52 33.625706 -117.940369 248 2049ft 119kts
04-Nov-19 13:53 33.636864 -117.965918 8 2883ft 101kts
04-Nov-19 13:54 33.666816 -117.950713 19 3066ft 131kts
04-Nov-19 13:55 33.700656 -117.933280 19 3067ft 135kts
04-Nov-19 13:56 33.735208 -117.915788 19 2995ft 136kts
04-Nov-19 13:57 33.769627 -117.898469 19 2998ft 135kts
04-Nov-19 13:58 33.794252 -117.886132 19 2997ft 133kts
04-Nov-19 13:59 33.804142 -117.881241 19 2997ft 133kts
04-Nov-19 14:00 33.838153 -117.864521 19 2995ft 131kts
04-Nov-19 14:01 33.872236 -117.848392 19 2993ft 130kts
04-Nov-19 14:02 33.899750 -117.824655 91 2966ft 134kts
04-Nov-19 14:03 33.887996 -117.781661 108 2964ft 135kts
04-Nov-19 14:04 33.853717 -117.769232 179 2944ft 138kts
04-Nov-19 14:05 33.820105 -117.783744 232 2930ft 134kts
04-Nov-19 14:06 33.788985 -117.808065 207 2565ft 128kts
04-Nov-19 14:07 33.757092 -117.821924 199 2151ft 119kts
04-Nov-19 14:08 33.726291 -117.836639 208 1583ft 122kts
04-Nov-19 14:09 33.700555 -117.854000 208 793ft 103kts
04-Nov-19 14:10 33.679734 -117.866258 211 104ft 57kts
04-Nov-19 14:11 33.674357 -117.870021 290 60ft 0kts
04-Nov-19 14:12 33.675043 -117.871149 314 60ft 11kts
04-Nov-19 14:13 33.675167 -117.871685 237 60ft 0kts

Navigation Log

Ident Type
Flight plan parsing failed, navigation log unavailable